Time;durP1;ratioP1;P1;durP2;ratioP2;P2;SDS_P1;SDS_P2;PMS_P1;PMS_P2;Temp;Humidity;BMP_temperature;BMP_pressure;BME280_temperature;BME280_humidity;BME280_pressure;Samples;Min_cycle;Max_cycle;Signal;HPM_P1;HPM_P2
2021/12/21 00:02:12;;;;;;;5.15;2.60;;;4.10;91.20;;;;;;5014234;28;20026;-67
2021/12/21 00:04:37;;;;;;;5.38;2.70;;;4.10;91.20;;;;;;5012217;28;20041;-67
2021/12/21 00:07:05;;;;;;;6.40;2.60;;;4.10;91.20;;;;;;5005103;28;20042;-68
2021/12/21 00:09:31;;;;;;;9.07;2.95;;;4.10;91.30;;;;;;5019202;28;20036;-67
2021/12/21 00:11:58;;;;;;;6.30;2.88;;;4.10;91.30;;;;;;5015494;28;20033;-68
2021/12/21 00:14:45;;;;;;;6.00;3.22;;;4.10;91.30;;;;;;5013334;28;20044;-68
2021/12/21 00:22:31;;;;;;;8.25;2.97;;;4.10;91.30;;;;;;5010875;28;20026;-68
2021/12/21 00:24:55;;;;;;;8.55;2.97;;;4.00;91.30;;;;;;5016082;28;20115;-68
2021/12/21 00:27:21;;;;;;;9.65;3.63;;;4.00;91.40;;;;;;5010959;28;20033;-68
2021/12/21 00:29:47;;;;;;;12.00;4.13;;;4.00;91.30;;;;;;5014743;28;20088;-67
2021/12/21 00:32:13;;;;;;;9.90;3.40;;;3.90;91.40;;;;;;5009572;28;20472;-67
2021/12/21 00:34:40;;;;;;;8.98;3.30;;;3.90;91.60;;;;;;5007771;28;20099;-67
2021/12/21 00:37:06;;;;;;;9.85;3.63;;;3.90;91.50;;;;;;5011682;28;20045;-68
2021/12/21 00:39:32;;;;;;;7.57;3.35;;;3.90;91.40;;;;;;5015318;28;20033;-67
2021/12/21 00:41:58;;;;;;;7.60;3.60;;;3.90;91.40;;;;;;5015905;28;20042;-68
2021/12/21 00:44:24;;;;;;;6.28;3.15;;;4.00;91.50;;;;;;5012520;28;20389;-67
2021/12/21 00:46:49;;;;;;;7.90;3.28;;;4.00;91.30;;;;;;5005989;28;20030;-68
2021/12/21 00:49:16;;;;;;;4.57;3.00;;;4.00;91.10;;;;;;5006494;28;20596;-67
2021/12/21 00:51:43;;;;;;;6.35;3.20;;;4.00;91.10;;;;;;5018808;28;20063;-67
2021/12/21 00:54:11;;;;;;;7.55;3.50;;;4.10;91.20;;;;;;5013570;28;20041;-68
2021/12/21 00:56:37;;;;;;;7.85;3.42;;;4.00;91.30;;;;;;5013179;28;20068;-67
2021/12/21 00:59:04;;;;;;;11.10;4.20;;;4.00;91.40;;;;;;5010922;28;20105;-68
2021/12/21 01:01:30;;;;;;;8.50;3.58;;;4.00;91.20;;;;;;5004556;28;20061;-68
2021/12/21 01:03:57;;;;;;;5.30;2.92;;;4.00;91.00;;;;;;5003966;28;20512;-67
2021/12/21 01:06:37;;;;;;;9.82;3.55;;;4.00;91.10;;;;;;5020150;28;20033;-67
2021/12/21 01:11:51;;;;;;;7.03;2.72;;;4.00;91.20;;;;;;5013738;28;20692;-67
2021/12/21 01:15:04;;;;;;;5.95;2.90;;;4.00;91.20;;;;;;5014258;28;20033;-68
2021/12/21 01:17:17;;;;;;;5.97;3.30;;;4.00;91.10;;;;;;5008473;28;20703;-67
2021/12/21 01:19:57;;;;;;;8.15;3.33;;;4.00;91.00;;;;;;5011627;28;20029;-67
2021/12/21 01:22:41;;;;;;;4.85;3.00;;;3.90;91.00;;;;;;5014021;28;20041;-68
2021/12/21 01:25:31;;;;;;;7.85;3.65;;;4.00;91.00;;;;;;5012042;28;20555;-68
2021/12/21 01:30:37;;;;;;;4.78;3.13;;;3.90;91.30;;;;;;5012864;28;20038;-68
2021/12/21 01:35:35;;;;;;;5.25;3.35;;;3.90;91.40;;;;;;5010351;28;20037;-68
2021/12/21 01:38:16;;;;;;;7.40;3.30;;;3.90;91.40;;;;;;5011125;28;20615;-68
2021/12/21 01:40:51;;;;;;;5.30;2.55;;;3.80;91.30;;;;;;5007802;28;20061;-67
2021/12/21 01:43:25;;;;;;;6.68;3.13;;;3.80;91.40;;;;;;5009696;28;20065;-67
2021/12/21 01:51:21;;;;;;;5.85;2.90;;;3.70;91.60;;;;;;5017928;28;20030;-67
2021/12/21 01:53:47;;;;;;;6.53;3.00;;;3.70;91.60;;;;;;5008670;28;20045;-67
2021/12/21 01:56:13;;;;;;;5.68;2.92;;;3.80;91.70;;;;;;5011569;28;20091;-68
2021/12/21 01:58:40;;;;;;;6.82;3.47;;;3.80;91.70;;;;;;5004294;28;20049;-67
2021/12/21 02:01:09;;;;;;;6.30;3.60;;;3.80;91.70;;;;;;5007919;28;20029;-67
2021/12/21 02:03:35;;;;;;;8.38;3.92;;;3.80;91.60;;;;;;5012690;28;20892;-67
2021/12/21 02:06:01;;;;;;;7.50;3.20;;;3.80;91.70;;;;;;5013572;28;20486;-67
2021/12/21 02:08:27;;;;;;;5.78;3.38;;;3.80;91.70;;;;;;5012829;28;20160;-68
2021/12/21 02:10:53;;;;;;;8.40;3.35;;;3.90;91.70;;;;;;5011459;28;20041;-68
2021/12/21 02:13:19;;;;;;;5.53;3.05;;;3.90;91.70;;;;;;5003503;28;20026;-68
2021/12/21 02:15:45;;;;;;;8.15;3.80;;;3.90;91.80;;;;;;5016110;28;20037;-68
2021/12/21 02:21:05;;;;;;;6.55;3.15;;;3.90;91.60;;;;;;5006738;28;20034;-67
2021/12/21 02:23:38;;;;;;;8.25;3.13;;;3.90;91.60;;;;;;5013077;28;20281;-68
2021/12/21 02:28:48;;;;;;;9.95;3.40;;;3.80;91.50;;;;;;5009648;28;20029;-67
2021/12/21 02:31:16;;;;;;;7.93;3.70;;;3.80;91.60;;;;;;5012195;28;20132;-67
2021/12/21 02:33:44;;;;;;;8.60;3.58;;;3.80;91.60;;;;;;5005411;28;20052;-68
2021/12/21 02:36:10;;;;;;;10.35;3.88;;;3.80;91.70;;;;;;5016202;28;20045;-67
2021/12/21 02:38:36;;;;;;;7.47;3.63;;;3.80;91.70;;;;;;5003537;28;20052;-67
2021/12/21 02:41:02;;;;;;;8.45;4.00;;;3.80;91.80;;;;;;5002245;28;20089;-67
2021/12/21 02:43:28;;;;;;;7.88;3.88;;;3.90;91.80;;;;;;5013524;28;20026;-68
2021/12/21 02:45:54;;;;;;;7.85;4.13;;;3.90;91.70;;;;;;5012003;28;20076;-68
2021/12/21 02:48:20;;;;;;;8.63;4.13;;;3.90;91.60;;;;;;5009856;28;20029;-67
2021/12/21 02:50:46;;;;;;;8.00;3.75;;;3.90;91.60;;;;;;5008573;28;20095;-68
2021/12/21 02:53:12;;;;;;;8.52;4.47;;;3.90;91.50;;;;;;5003729;28;20018;-67
2021/12/21 02:55:38;;;;;;;7.00;4.18;;;3.90;91.50;;;;;;5008100;28;20509;-67
2021/12/21 02:58:05;;;;;;;6.80;4.18;;;3.80;91.60;;;;;;5012448;28;20048;-67
2021/12/21 03:00:32;;;;;;;10.77;4.85;;;3.80;91.60;;;;;;5010044;28;20798;-67
2021/12/21 03:02:59;;;;;;;9.32;4.75;;;3.90;91.50;;;;;;5010245;28;20030;-67
2021/12/21 03:05:28;;;;;;;11.27;4.57;;;3.90;91.40;;;;;;5007617;28;20091;-67
2021/12/21 03:11:04;;;;;;;8.50;4.60;;;3.90;91.20;;;;;;5009471;28;20053;-67
2021/12/21 03:16:16;;;;;;;12.43;5.50;;;4.00;91.10;;;;;;5017495;28;20052;-69
2021/12/21 03:18:42;;;;;;;9.57;4.63;;;4.00;91.00;;;;;;5007322;28;20049;-67
2021/12/21 03:21:07;;;;;;;10.80;4.90;;;4.00;90.90;;;;;;5017387;28;20560;-67
2021/12/21 03:23:33;;;;;;;10.25;5.43;;;4.00;90.90;;;;;;5002909;28;20036;-67
2021/12/21 03:25:59;;;;;;;8.77;4.88;;;4.00;90.80;;;;;;5010875;28;20485;-66
2021/12/21 03:28:25;;;;;;;10.82;4.95;;;4.00;90.80;;;;;;5014181;28;20030;-67
2021/12/21 03:30:50;;;;;;;7.28;4.43;;;4.00;90.60;;;;;;5009029;28;20034;-67
2021/12/21 03:33:16;;;;;;;9.02;5.03;;;4.10;90.60;;;;;;5003527;28;20152;-67
2021/12/21 03:35:42;;;;;;;8.40;4.80;;;4.00;90.40;;;;;;5006336;28;20030;-67
2021/12/21 03:38:07;;;;;;;11.18;5.60;;;4.00;90.40;;;;;;5003423;28;20121;-67
2021/12/21 03:40:33;;;;;;;9.07;4.88;;;3.90;90.50;;;;;;5009622;28;20105;-67
2021/12/21 03:43:00;;;;;;;9.68;5.10;;;3.80;90.50;;;;;;5013905;28;20033;-66
2021/12/21 03:45:29;;;;;;;13.73;5.68;;;3.80;90.50;;;;;;5014983;28;20049;-67
2021/12/21 03:47:55;;;;;;;13.50;5.82;;;3.70;90.60;;;;;;5008847;28;20794;-67
2021/12/21 03:50:21;;;;;;;10.13;5.57;;;3.70;90.60;;;;;;5005878;28;20045;-66
2021/12/21 03:52:47;;;;;;;10.55;5.15;;;3.70;90.70;;;;;;5007059;28;20092;-67
2021/12/21 03:55:13;;;;;;;15.85;6.25;;;3.70;90.90;;;;;;5012433;28;20120;-67
2021/12/21 03:57:39;;;;;;;15.02;5.93;;;3.70;91.00;;;;;;5011966;28;20223;-67
2021/12/21 04:00:09;;;;;;;10.15;5.35;;;3.70;90.90;;;;;;5012184;28;20037;-67
2021/12/21 04:02:34;;;;;;;12.48;6.05;;;3.70;90.80;;;;;;5008764;28;20037;-67
2021/12/21 04:05:00;;;;;;;13.32;6.07;;;3.70;90.80;;;;;;5002410;28;20041;-67
2021/12/21 04:07:28;;;;;;;11.18;5.28;;;3.70;90.80;;;;;;5009354;28;20034;-67
2021/12/21 04:09:54;;;;;;;12.15;5.57;;;3.70;90.80;;;;;;5012742;28;20049;-67
2021/12/21 04:12:20;;;;;;;7.95;5.07;;;3.60;90.80;;;;;;5016833;28;20932;-67
2021/12/21 04:14:46;;;;;;;11.30;6.32;;;3.60;91.00;;;;;;5008998;28;20034;-67
2021/12/21 04:17:18;;;;;;;11.52;5.60;;;3.60;91.00;;;;;;5007841;28;20120;-67
2021/12/21 04:19:44;;;;;;;13.73;6.22;;;3.70;90.90;;;;;;5004873;28;20033;-67
2021/12/21 04:22:10;;;;;;;13.20;6.60;;;3.70;90.80;;;;;;5015029;28;20095;-67
2021/12/21 04:24:36;;;;;;;13.52;6.82;;;3.70;90.60;;;;;;5011250;28;20039;-67
2021/12/21 04:27:01;;;;;;;10.35;6.43;;;3.70;90.60;;;;;;5006212;28;20034;-67
2021/12/21 04:29:27;;;;;;;10.52;6.45;;;3.70;90.60;;;;;;5010247;28;20038;-67
2021/12/21 04:31:53;;;;;;;13.50;6.70;;;3.70;90.60;;;;;;5006471;28;20120;-66
2021/12/21 04:34:18;;;;;;;13.52;6.60;;;3.70;90.50;;;;;;5010393;28;20061;-67
2021/12/21 04:36:45;;;;;;;10.45;6.18;;;3.70;90.50;;;;;;5017855;28;20042;-67
2021/12/21 04:39:21;;;;;;;11.27;6.40;;;3.70;90.60;;;;;;5014767;28;20033;-67
2021/12/21 04:41:47;;;;;;;13.48;6.70;;;3.70;90.50;;;;;;5012713;28;20120;-67
2021/12/21 04:44:13;;;;;;;11.65;6.45;;;3.70;90.60;;;;;;5010374;28;20135;-68
2021/12/21 04:46:38;;;;;;;13.27;6.30;;;3.70;90.60;;;;;;5005409;28;20029;-67
2021/12/21 04:49:04;;;;;;;14.23;7.53;;;3.70;90.50;;;;;;5015019;28;20092;-67
2021/12/21 04:51:30;;;;;;;15.52;7.45;;;3.70;90.80;;;;;;5016037;28;20072;-67
2021/12/21 04:53:55;;;;;;;15.20;6.97;;;3.70;90.30;;;;;;5010440;28;20086;-67
2021/12/21 04:56:21;;;;;;;14.48;7.53;;;3.60;90.50;;;;;;5015600;28;20033;-67
2021/12/21 04:58:47;;;;;;;13.35;7.22;;;3.60;90.50;;;;;;5005157;28;20038;-67
2021/12/21 05:01:13;;;;;;;10.82;6.05;;;3.60;90.40;;;;;;5007354;28;20040;-67
2021/12/21 05:03:39;;;;;;;13.85;7.30;;;3.60;90.60;;;;;;5013189;28;20114;-67
2021/12/21 05:06:05;;;;;;;16.85;7.53;;;3.60;90.60;;;;;;5012834;28;20034;-67
2021/12/21 05:08:36;;;;;;;14.32;7.35;;;3.60;90.60;;;;;;5015119;28;20083;-67
2021/12/21 05:11:04;;;;;;;18.65;7.40;;;3.50;90.60;;;;;;5009444;28;20934;-67
2021/12/21 05:13:33;;;;;;;13.13;7.15;;;3.50;90.60;;;;;;5005056;28;20057;-67
2021/12/21 05:16:00;;;;;;;17.00;7.93;;;3.50;90.60;;;;;;5009727;28;20360;-67
2021/12/21 05:18:27;;;;;;;16.33;8.13;;;3.50;90.60;;;;;;5017453;28;20033;-67
2021/12/21 05:20:53;;;;;;;12.85;7.60;;;3.50;90.70;;;;;;5011543;28;20052;-67
2021/12/21 05:23:19;;;;;;;13.02;7.95;;;3.50;90.60;;;;;;5018384;28;20117;-67
2021/12/21 05:25:45;;;;;;;15.35;7.38;;;3.40;90.70;;;;;;5009506;28;20030;-67
2021/12/21 05:28:13;;;;;;;12.13;6.68;;;3.40;90.80;;;;;;5007334;28;20863;-67
2021/12/21 05:30:40;;;;;;;13.45;8.10;;;3.40;90.80;;;;;;5007508;28;20541;-67
2021/12/21 05:33:06;;;;;;;33.88;13.77;;;3.40;90.80;;;;;;5011660;28;20038;-67
2021/12/21 05:35:33;;;;;;;33.30;14.77;;;3.40;90.80;;;;;;5016566;28;20489;-67
2021/12/21 05:38:03;;;;;;;20.70;10.38;;;3.40;90.90;;;;;;5012324;28;20044;-68
2021/12/21 05:40:36;;;;;;;17.48;8.48;;;3.40;90.80;;;;;;5011289;28;20050;-67
2021/12/21 05:43:03;;;;;;;20.00;8.45;;;3.30;91.00;;;;;;5005166;28;20038;-67
2021/12/21 05:45:29;;;;;;;19.17;9.18;;;3.30;91.10;;;;;;5011438;28;20126;-67
2021/12/21 05:47:54;;;;;;;15.77;8.38;;;3.20;91.10;;;;;;5013621;28;20085;-67
2021/12/21 05:50:21;;;;;;;16.60;8.15;;;3.20;91.20;;;;;;5020030;28;20033;-67
2021/12/21 05:52:48;;;;;;;13.20;7.60;;;3.20;91.00;;;;;;5005736;28;20042;-67
2021/12/21 05:55:15;;;;;;;14.68;7.22;;;3.20;91.00;;;;;;5010459;28;20030;-67
2021/12/21 05:57:42;;;;;;;12.77;7.60;;;3.20;91.20;;;;;;5002677;28;20739;-67
2021/12/21 06:00:11;;;;;;;15.13;8.20;;;3.30;91.20;;;;;;5018843;28;20042;-67
2021/12/21 06:02:37;;;;;;;16.00;7.07;;;3.40;91.10;;;;;;5014440;28;20393;-67
2021/12/21 06:05:04;;;;;;;11.80;6.72;;;3.40;91.00;;;;;;5009816;28;20038;-67
2021/12/21 06:07:31;;;;;;;12.40;6.78;;;3.50;91.00;;;;;;5015082;28;20025;-67
2021/12/21 06:09:56;;;;;;;11.80;7.03;;;3.50;91.00;;;;;;5007698;28;20038;-67
2021/12/21 06:23:09;;;;;;;15.60;6.88;;;3.60;90.70;;;;;;5013370;28;20034;-67
2021/12/21 06:25:40;;;;;;;13.65;7.22;;;3.60;90.70;;;;;;5008473;28;20049;-67
2021/12/21 06:28:09;;;;;;;13.30;6.55;;;3.60;90.90;;;;;;5009179;28;20030;-67
2021/12/21 06:30:37;;;;;;;15.70;7.50;;;3.60;90.90;;;;;;5012969;28;20472;-67
2021/12/21 06:33:04;;;;;;;12.25;6.95;;;3.60;91.00;;;;;;5012251;28;20041;-67
2021/12/21 06:35:30;;;;;;;14.35;7.32;;;3.60;91.00;;;;;;5010577;28;20060;-67
2021/12/21 06:37:56;;;;;;;12.77;6.32;;;3.70;91.00;;;;;;5008759;28;20042;-67
2021/12/21 06:40:22;;;;;;;17.98;8.20;;;3.70;90.90;;;;;;5009043;28;20710;-67
2021/12/21 06:42:50;;;;;;;15.77;7.97;;;3.70;90.80;;;;;;5013015;28;20052;-67
2021/12/21 06:45:32;;;;;;;16.50;8.18;;;3.70;90.80;;;;;;5004513;28;20037;-67
2021/12/21 06:53:28;;;;;;;15.20;7.35;;;3.70;90.60;;;;;;5008913;28;20052;-67
2021/12/21 06:55:54;;;;;;;12.32;6.13;;;3.80;90.60;;;;;;5008544;28;20041;-67
2021/12/21 06:58:20;;;;;;;11.63;6.70;;;3.80;90.50;;;;;;5014279;28;20037;-67
2021/12/21 07:00:47;;;;;;;14.30;7.38;;;3.80;90.40;;;;;;5016384;28;20059;-67
2021/12/21 07:03:13;;;;;;;14.38;7.00;;;3.80;90.40;;;;;;5010151;28;20881;-67
2021/12/21 07:05:42;;;;;;;14.23;7.90;;;3.80;90.50;;;;;;5004013;28;20623;-67
2021/12/21 07:08:13;;;;;;;16.33;8.45;;;3.80;90.50;;;;;;5012805;28;20378;-67
2021/12/21 07:10:40;;;;;;;11.80;7.43;;;3.80;90.60;;;;;;5009505;28;20846;-67
2021/12/21 07:18:34;;;;;;;13.50;8.20;;;3.80;90.40;;;;;;5014465;28;20921;-67
2021/12/21 07:21:01;;;;;;;15.27;7.88;;;3.80;90.40;;;;;;5008427;28;20029;-67
2021/12/21 07:23:30;;;;;;;17.85;8.60;;;3.80;90.30;;;;;;5009124;28;20113;-67
2021/12/21 07:25:56;;;;;;;16.67;7.63;;;3.80;90.20;;;;;;5022225;28;20030;-67
2021/12/21 07:28:21;;;;;;;13.38;7.13;;;3.80;90.10;;;;;;5013548;28;20041;-67
2021/12/21 07:30:47;;;;;;;15.45;8.05;;;3.80;90.10;;;;;;5006994;28;20042;-67
2021/12/21 07:33:15;;;;;;;12.35;6.80;;;3.80;90.20;;;;;;5009716;28;20033;-67
2021/12/21 07:35:41;;;;;;;14.80;8.07;;;3.80;90.20;;;;;;5005464;28;20034;-67
2021/12/21 07:38:06;;;;;;;16.38;8.90;;;3.80;90.20;;;;;;4990305;28;20796;-67
2021/12/21 07:40:32;;;;;;;16.25;8.15;;;3.80;90.30;;;;;;5007427;28;20150;-67
2021/12/21 07:43:00;;;;;;;16.10;8.45;;;3.80;90.20;;;;;;5009347;28;20052;-67
2021/12/21 07:45:26;;;;;;;13.63;7.80;;;3.80;90.30;;;;;;5013448;28;20034;-68
2021/12/21 07:47:52;;;;;;;21.40;8.18;;;3.70;90.40;;;;;;5004352;28;20033;-67
2021/12/21 07:50:19;;;;;;;17.00;8.63;;;3.70;90.40;;;;;;5009325;28;20044;-67
2021/12/21 07:52:45;;;;;;;18.42;9.27;;;3.80;90.50;;;;;;5005951;28;20037;-67
2021/12/21 07:55:11;;;;;;;26.60;10.68;;;3.80;90.40;;;;;;5006409;28;20566;-68
2021/12/21 07:57:37;;;;;;;24.23;10.63;;;3.80;90.50;;;;;;5005887;28;20060;-68
2021/12/21 08:00:07;;;;;;;15.18;8.93;;;3.80;90.50;;;;;;5012245;28;20037;-67
2021/12/21 08:02:40;;;;;;;16.08;8.02;;;3.90;90.50;;;;;;5007740;28;20049;-68
2021/12/21 08:05:09;;;;;;;21.88;10.45;;;3.90;90.30;;;;;;5013258;28;20438;-67
2021/12/21 08:07:48;;;;;;;20.48;9.85;;;3.90;90.30;;;;;;5013394;28;20029;-68
2021/12/21 08:10:51;;;;;;;21.90;10.48;;;3.90;90.60;;;;;;5010804;28;20494;-67
2021/12/21 08:13:06;;;;;;;25.73;10.38;;;3.90;90.50;;;;;;5011725;28;20046;-67
2021/12/21 08:15:32;;;;;;;20.88;10.10;;;4.00;90.50;;;;;;5009369;28;20034;-67
2021/12/21 08:17:57;;;;;;;16.80;9.68;;;4.00;90.30;;;;;;5012276;28;20037;-68
2021/12/21 08:20:23;;;;;;;24.98;10.35;;;4.10;90.30;;;;;;5008659;28;20573;-67
2021/12/21 08:22:49;;;;;;;26.73;10.32;;;4.10;90.20;;;;;;5011360;28;20033;-67
2021/12/21 08:25:15;;;;;;;22.70;9.77;;;4.10;90.30;;;;;;5011891;28;20025;-67
2021/12/21 08:27:41;;;;;;;24.75;10.43;;;4.10;90.30;;;;;;5009862;28;20732;-67
2021/12/21 08:30:09;;;;;;;22.50;10.65;;;4.10;90.10;;;;;;5009025;28;20504;-68
2021/12/21 08:32:35;;;;;;;26.45;10.57;;;4.20;90.10;;;;;;5008045;28;20124;-67
2021/12/21 08:35:01;;;;;;;28.08;11.35;;;4.20;89.80;;;;;;5012190;28;20176;-67
2021/12/21 08:37:28;;;;;;;25.42;11.65;;;4.20;89.20;;;;;;5014114;28;20489;-67
2021/12/21 08:39:53;;;;;;;26.90;10.80;;;4.20;89.50;;;;;;5011642;28;20037;-67
2021/12/21 08:42:19;;;;;;;23.05;10.77;;;4.30;90.00;;;;;;5011199;28;20029;-67
2021/12/21 08:44:47;;;;;;;22.63;10.18;;;4.30;90.00;;;;;;5009211;28;20083;-67
2021/12/21 08:47:14;;;;;;;24.98;10.95;;;4.40;89.30;;;;;;5012164;28;20045;-67
2021/12/21 08:49:39;;;;;;;23.58;9.80;;;4.50;89.10;;;;;;5014411;28;20124;-67
2021/12/21 08:52:06;;;;;;;26.02;9.95;;;4.50;88.20;;;;;;5015233;28;20121;-68
2021/12/21 08:54:31;;;;;;;24.13;9.85;;;4.50;88.30;;;;;;5017723;28;20028;-68
2021/12/21 08:56:57;;;;;;;25.25;10.20;;;4.50;88.90;;;;;;5013538;28;20037;-67
2021/12/21 08:59:23;;;;;;;26.13;11.70;;;4.50;88.70;;;;;;5009203;28;20120;-68
2021/12/21 09:01:51;;;;;;;32.80;13.45;;;4.50;88.40;;;;;;5008937;28;20044;-68
2021/12/21 09:04:19;;;;;;;26.98;12.13;;;4.50;88.70;;;;;;5010770;28;20033;-68
2021/12/21 09:06:45;;;;;;;24.30;10.10;;;4.50;88.60;;;;;;5012657;28;20037;-68
2021/12/21 09:09:11;;;;;;;23.52;9.35;;;4.50;88.50;;;;;;5012561;28;20032;-68
2021/12/21 09:11:37;;;;;;;26.60;11.23;;;4.40;88.60;;;;;;5010107;28;20029;-67
2021/12/21 09:14:03;;;;;;;23.45;10.38;;;4.50;88.50;;;;;;5013226;28;20049;-68
2021/12/21 09:16:29;;;;;;;25.00;9.75;;;4.40;87.80;;;;;;5010717;28;20069;-67
2021/12/21 09:18:55;;;;;;;21.90;9.00;;;4.40;88.40;;;;;;5011202;28;20033;-67
2021/12/21 09:21:21;;;;;;;29.40;11.30;;;4.30;88.80;;;;;;5014859;28;20065;-67
2021/12/21 09:23:46;;;;;;;35.88;14.30;;;4.30;89.00;;;;;;5010129;28;20029;-67
2021/12/21 09:26:13;;;;;;;27.58;11.95;;;4.30;89.00;;;;;;5014830;28;20056;-67
2021/12/21 09:28:38;;;;;;;24.83;10.68;;;4.30;89.20;;;;;;5010456;28;20797;-67
2021/12/21 09:31:04;;;;;;;23.08;9.27;;;4.30;89.70;;;;;;5010924;28;20033;-67
2021/12/21 09:33:30;;;;;;;25.40;10.25;;;4.30;89.40;;;;;;5007866;28;20547;-67
2021/12/21 09:35:56;;;;;;;21.50;9.88;;;4.30;89.20;;;;;;5011352;28;20029;-67
2021/12/21 09:38:21;;;;;;;21.60;11.05;;;4.40;89.20;;;;;;5008979;28;20501;-67
2021/12/21 09:40:48;;;;;;;20.70;9.50;;;4.40;90.00;;;;;;5014501;28;20545;-67
2021/12/21 09:43:14;;;;;;;24.45;11.82;;;4.50;89.10;;;;;;5009924;28;20034;-67
2021/12/21 09:45:40;;;;;;;34.92;17.02;;;4.40;89.60;;;;;;5010339;28;20687;-67
2021/12/21 09:48:06;;;;;;;19.27;10.38;;;4.50;89.70;;;;;;5007435;28;20038;-67
2021/12/21 09:50:33;;;;;;;23.38;10.82;;;4.50;89.40;;;;;;5012130;28;20037;-67
2021/12/21 09:52:59;;;;;;;18.67;10.45;;;4.70;89.00;;;;;;5016832;28;20711;-67
2021/12/21 09:55:25;;;;;;;16.30;8.88;;;4.80;88.60;;;;;;4993774;28;20040;-67
2021/12/21 09:57:52;;;;;;;18.02;8.77;;;4.80;87.90;;;;;;5010798;28;20529;-67
2021/12/21 10:00:24;;;;;;;21.65;10.27;;;4.80;87.20;;;;;;5007601;28;20034;-67
2021/12/21 10:02:51;;;;;;;21.65;10.18;;;4.80;87.00;;;;;;5005124;28;20026;-67
2021/12/21 10:05:20;;;;;;;19.05;8.88;;;4.70;86.80;;;;;;5008623;28;20029;-67
2021/12/21 10:08:01;;;;;;;15.85;8.30;;;4.70;87.10;;;;;;5000642;28;20029;-67
2021/12/21 10:10:32;;;;;;;20.00;8.85;;;4.70;87.00;;;;;;5004527;28;20040;-67
2021/12/21 10:13:14;;;;;;;20.08;8.93;;;4.60;87.70;;;;;;5008501;28;20037;-67
2021/12/21 10:15:43;;;;;;;17.42;9.48;;;4.60;88.00;;;;;;5011189;28;20040;-68
2021/12/21 10:18:10;;;;;;;19.80;9.45;;;4.60;88.20;;;;;;5005526;28;20041;-67
2021/12/21 10:20:43;;;;;;;16.40;8.85;;;4.60;87.50;;;;;;5014315;28;20029;-67
2021/12/21 10:23:14;;;;;;;16.15;8.55;;;4.60;87.60;;;;;;5008291;28;20046;-68
2021/12/21 10:25:46;;;;;;;14.20;7.32;;;4.60;87.70;;;;;;5003994;28;20061;-68
2021/12/21 10:28:24;;;;;;;15.43;7.88;;;4.70;87.90;;;;;;5011700;28;20036;-69
2021/12/21 10:30:53;;;;;;;19.08;8.88;;;4.60;86.70;;;;;;5010646;28;20030;-68
2021/12/21 10:33:20;;;;;;;18.65;9.23;;;4.60;86.60;;;;;;5016061;28;20113;-68
2021/12/21 10:35:46;;;;;;;17.17;9.35;;;4.60;86.90;;;;;;5011592;28;20037;-67
2021/12/21 10:38:11;;;;;;;18.45;9.00;;;4.60;87.50;;;;;;5006060;28;20366;-67
2021/12/21 10:40:39;;;;;;;20.58;9.77;;;4.60;87.40;;;;;;5009465;28;20124;-68
2021/12/21 10:43:09;;;;;;;21.52;10.05;;;4.60;87.30;;;;;;5005995;28;20095;-68
2021/12/21 10:45:34;;;;;;;22.98;12.85;;;4.50;86.80;;;;;;5012261;28;20045;-67
2021/12/21 10:48:02;;;;;;;46.00;27.75;;;4.50;87.00;;;;;;5003984;28;20050;-68
2021/12/21 10:50:32;;;;;;;52.70;26.55;;;4.50;87.10;;;;;;5006635;28;20048;-68
2021/12/21 10:52:58;;;;;;;25.88;12.90;;;4.50;87.50;;;;;;5005189;28;20038;-68
2021/12/21 10:55:27;;;;;;;20.58;9.50;;;4.50;87.60;;;;;;5016184;28;20812;-68
2021/12/21 10:58:08;;;;;;;45.15;20.13;;;4.50;87.80;;;;;;5008019;28;20047;-68
2021/12/21 11:00:37;;;;;;;53.60;20.55;;;4.60;87.50;;;;;;5015991;28;20820;-68
2021/12/21 11:03:03;;;;;;;27.73;13.35;;;4.60;87.40;;;;;;5009246;28;20033;-68
2021/12/21 11:05:29;;;;;;;20.15;8.57;;;4.60;88.00;;;;;;5011536;28;20057;-68
2021/12/21 11:08:00;;;;;;;20.55;9.38;;;4.60;87.40;;;;;;5007340;28;20057;-68
2021/12/21 11:10:33;;;;;;;28.40;12.20;;;4.60;86.90;;;;;;5011393;28;20037;-68
2021/12/21 11:13:00;;;;;;;33.70;16.02;;;4.50;87.10;;;;;;5014436;28;20055;-68
2021/12/21 11:15:35;;;;;;;26.77;13.60;;;4.50;87.10;;;;;;5011589;28;20037;-68
2021/12/21 11:18:21;;;;;;;22.45;12.00;;;4.50;88.00;;;;;;5010259;28;20116;-68
2021/12/21 11:20:50;;;;;;;24.23;13.13;;;4.50;87.10;;;;;;5005152;28;20046;-68
2021/12/21 11:23:18;;;;;;;20.52;9.85;;;4.50;87.50;;;;;;5008809;28;20132;-68
2021/12/21 11:25:48;;;;;;;18.65;10.15;;;4.50;87.60;;;;;;5011842;28;20037;-68
2021/12/21 11:28:21;;;;;;;19.30;9.95;;;4.50;88.00;;;;;;5011360;28;20912;-68
2021/12/21 11:30:47;;;;;;;21.15;10.13;;;4.50;88.00;;;;;;5010110;28;20044;-68
2021/12/21 11:33:17;;;;;;;21.35;10.88;;;4.50;88.00;;;;;;5004688;28;20033;-68
2021/12/21 11:38:12;;;;;;;23.73;11.35;;;4.40;87.70;;;;;;5010932;28;20516;-68
2021/12/21 11:40:40;;;;;;;18.25;9.95;;;4.40;88.60;;;;;;5006903;28;20034;-68
2021/12/21 11:43:41;;;;;;;22.25;10.73;;;4.40;88.70;;;;;;5016614;28;20117;-70
2021/12/21 11:46:14;;;;;;;22.60;9.93;;;4.50;88.30;;;;;;5018902;28;20095;-68
2021/12/21 11:48:58;;;;;;;24.95;11.40;;;4.50;88.60;;;;;;5009528;28;20058;-66
2021/12/21 11:51:26;;;;;;;30.98;11.98;;;4.50;88.40;;;;;;5012602;28;20060;-66
2021/12/21 11:53:53;;;;;;;29.85;11.77;;;4.50;87.90;;;;;;5005382;28;20052;-66
2021/12/21 11:56:24;;;;;;;30.92;12.70;;;4.50;88.00;;;;;;5011387;28;20215;-67
2021/12/21 11:58:53;;;;;;;22.80;11.10;;;4.50;88.10;;;;;;5014832;28;20041;-67
2021/12/21 12:01:23;;;;;;;29.40;12.30;;;4.50;88.50;;;;;;5021008;28;20037;-68
2021/12/21 12:03:58;;;;;;;20.30;10.48;;;4.50;88.00;;;;;;5014412;28;20774;-67
2021/12/21 12:06:24;;;;;;;26.23;9.75;;;4.50;88.20;;;;;;5011006;28;20046;-68
2021/12/21 12:08:55;;;;;;;21.52;10.55;;;4.50;88.20;;;;;;5020632;28;20506;-66
2021/12/21 12:11:39;;;;;;;21.80;10.20;;;4.60;87.70;;;;;;5013950;28;20038;-67
2021/12/21 12:14:05;;;;;;;26.17;9.85;;;4.60;87.40;;;;;;5016056;28;20084;-66
2021/12/21 12:16:40;;;;;;;21.92;9.23;;;4.60;87.90;;;;;;5013439;28;20034;-66
2021/12/21 12:19:11;;;;;;;22.23;10.35;;;4.60;87.20;;;;;;5009188;28;20048;-65
2021/12/21 12:21:37;;;;;;;19.33;9.40;;;4.50;87.30;;;;;;5017108;28;20040;-65
2021/12/21 12:24:04;;;;;;;20.50;9.05;;;4.50;87.80;;;;;;5006940;28;20400;-67
2021/12/21 12:26:31;;;;;;;18.30;8.13;;;4.50;87.90;;;;;;5007741;28;20034;-66
2021/12/21 12:29:12;;;;;;;19.98;9.60;;;4.50;88.40;;;;;;5011841;28;20743;-66
2021/12/21 12:31:40;;;;;;;24.15;10.23;;;4.40;88.60;;;;;;5014726;28;20044;-66
2021/12/21 12:34:07;;;;;;;26.80;10.35;;;4.40;87.90;;;;;;5008514;28;20449;-66
2021/12/21 12:36:51;;;;;;;25.77;11.73;;;4.40;87.60;;;;;;5011010;28;20996;-63
2021/12/21 12:39:40;;;;;;;21.98;8.93;;;4.40;88.40;;;;;;5010763;28;20512;-66
2021/12/21 12:42:16;;;;;;;19.52;8.98;;;4.50;87.70;;;;;;5011851;28;20052;-66
2021/12/21 12:44:45;;;;;;;21.17;9.05;;;4.40;88.10;;;;;;5007447;28;20208;-66
2021/12/21 12:47:14;;;;;;;17.42;7.30;;;4.40;88.20;;;;;;5007345;28;20524;-64
2021/12/21 12:49:52;;;;;;;20.02;8.32;;;4.40;87.80;;;;;;5007109;28;20038;-65
2021/12/21 12:52:31;;;;;;;18.75;7.25;;;4.50;88.10;;;;;;5010637;28;20118;-65
2021/12/21 12:55:04;;;;;;;14.07;6.50;;;4.40;86.70;;;;;;5013055;28;20041;-65
2021/12/21 12:57:38;;;;;;;15.68;8.00;;;4.40;87.80;;;;;;5010812;28;20088;-66
2021/12/21 13:00:17;;;;;;;18.98;7.88;;;4.30;87.60;;;;;;5011767;28;20048;-66
2021/12/21 13:02:54;;;;;;;17.42;8.25;;;4.30;87.30;;;;;;5011417;28;20540;-66
2021/12/21 13:05:36;;;;;;;19.08;8.77;;;4.30;87.20;;;;;;5017041;28;20176;-66
2021/12/21 13:08:07;;;;;;;19.33;8.05;;;4.30;87.20;;;;;;5014319;28;20584;-66
2021/12/21 13:10:36;;;;;;;21.98;9.75;;;4.30;88.00;;;;;;5014668;28;20856;-66
2021/12/21 13:13:03;;;;;;;19.77;8.63;;;4.30;88.30;;;;;;5014607;28;20131;-66
2021/12/21 13:15:36;;;;;;;19.83;8.88;;;4.30;86.90;;;;;;5012348;28;20056;-65
2021/12/21 13:18:05;;;;;;;21.33;9.40;;;4.30;87.70;;;;;;5014690;28;20045;-65
2021/12/21 13:20:33;;;;;;;22.42;10.32;;;4.30;88.00;;;;;;5008839;28;20022;-64
2021/12/21 13:23:18;;;;;;;27.77;14.40;;;4.30;87.60;;;;;;5011376;28;20561;-65
2021/12/21 13:26:07;;;;;;;27.20;12.60;;;4.30;87.60;;;;;;5011542;28;20056;-65
2021/12/21 13:28:56;;;;;;;25.80;11.65;;;4.30;87.70;;;;;;5010428;28;20038;-65
2021/12/21 13:31:23;;;;;;;23.13;10.32;;;4.20;88.20;;;;;;5010960;28;20133;-66
2021/12/21 13:33:55;;;;;;;22.70;11.43;;;4.10;88.40;;;;;;5008983;28;20037;-66
2021/12/21 13:36:30;;;;;;;21.45;9.65;;;4.10;88.80;;;;;;5010690;28;20049;-66
2021/12/21 13:38:56;;;;;;;18.60;8.27;;;4.10;89.00;;;;;;5009662;28;20044;-66
2021/12/21 13:41:22;;;;;;;18.27;7.82;;;4.10;89.20;;;;;;5002949;28;20080;-66
2021/12/21 13:43:59;;;;;;;18.77;8.63;;;4.10;89.10;;;;;;5014529;28;20545;-66
2021/12/21 13:46:31;;;;;;;25.05;10.23;;;4.10;88.90;;;;;;5027916;28;20112;-65
2021/12/21 13:48:58;;;;;;;20.95;8.15;;;4.10;88.80;;;;;;5011028;28;20041;-66